Bear, Idaho
Current Conditions -  °F | °C
As of 9:23 AM on Saturday 20 Dec 2014 (Local Time) from KMYL Reporting Station
Light Snow Light Snow  
Wind Chill: 26°   Ceiling: 2200
Heat Index: 32°   Visibility: 3mi
Dew Point: 31°   Wind: 6mph
Humidity: 96%   Direction: 160°SSE
Pressure: 29.9"   Gusts: NA
Location:  44.9328°N, 116.572°W
Report Text: KMYL 201623Z AUTO 16005KT 3SM -SN BR FEW007 OVC022 00/M01 A2990 RMK AO2 P0000 T00001006
Loading
Personal Weather Stations






























Interactive Weather Map New forecast layout! Learn more

10-Day Weather Forecast

Advertisements
Track Severe Weather on mobile